Temp: 3.8°C   Baro: 1036.3mb
  Wind: 2.0mph   Dir: W (273°)
  Rain: 0.0mm (0.0mm/hr)
  Solar: 0W/m2  Hum: 84%

Historic data

Bath Spa Weather Station Historical Data
Daily Summary for December 28, 2019 Units:  Both    English   Metric
Daily Weekly Monthly Yearly Custom
  High: Low: Average:
Temperature: 51.4 °F /  10.8 °C 46.8 °F /  8.2 °C 48.8 °F /  9.3 °C
Dew Point: 48.6 °F /  9.2 °C 45 °F /  7.2 °C 46.8 °F /  8.2 °C
Humidity: 96% 87% 93%
Wind Speed: 8.6mph /  13.8km/h - 2.8mph /  4.5km/h
Wind Gust: 17mph /  27.4km/h - -
Wind- - SSE
Pressure: 30.59 in /  1035.8 hPa 30.53 in /  1033.7 hPa -
Precipitation: 0.01 in /  0.25 mm    
Historical Graphs
 
 
Tabular Data for December 28, 2019
Time Temperature Dew Point Pressure Wind Wind Speed Wind Gust Humidity Rainfall Rate (Hourly) solar
00:09 48.4 °F /  9.1 °C 47.3 °F /  8.5 °C 30.53in /  1033.7hPa ESE 0.5mph /  0.8km/h 2mph /  3.2km/h 96% 0.00in /  0mm 0 W/m2
00:14 48.4 °F /  9.1 °C 47.3 °F /  8.5 °C 30.53in /  1033.7hPa ESE 0.9mph /  1.4km/h 2mph /  3.2km/h 96% 0.00in /  0mm 0 W/m2
00:19 48.4 °F /  9.1 °C 47.3 °F /  8.5 °C 30.53in /  1033.7hPa ESE 0.4mph /  0.6km/h 2mph /  3.2km/h 96% 0.00in /  0mm 0 W/m2
00:24 48.4 °F /  9.1 °C 47.3 °F /  8.5 °C 30.53in /  1033.7hPa ESE 0.2mph /  0.3km/h 1mph /  1.6km/h 96% 0.00in /  0mm 0 W/m2
00:29 48.4 °F /  9.1 °C 47.3 °F /  8.5 °C 30.53in /  1033.7hPa ESE 1.4mph /  2.3km/h 3mph /  4.8km/h 96% 0.00in /  0mm 0 W/m2
00:34 48.4 °F /  9.1 °C 47.3 °F /  8.5 °C 30.53in /  1033.7hPa ESE 1.2mph /  1.9km/h 3mph /  4.8km/h 96% 0.00in /  0mm 0 W/m2
00:39 48.4 °F /  9.1 °C 47.3 °F /  8.5 °C 30.53in /  1033.7hPa ESE 1.2mph /  1.9km/h 2mph /  3.2km/h 96% 0.00in /  0mm 0 W/m2
00:44 48.4 °F /  9.1 °C 47.3 °F /  8.5 °C 30.53in /  1033.7hPa ESE 1.3mph /  2.1km/h 3mph /  4.8km/h 96% 0.00in /  0mm 0 W/m2
00:49 48.4 °F /  9.1 °C 47.3 °F /  8.5 °C 30.53in /  1033.7hPa ESE 1.8mph /  2.9km/h 3mph /  4.8km/h 96% 0.00in /  0mm 0 W/m2
00:54 48.4 °F /  9.1 °C 47.3 °F /  8.5 °C 30.53in /  1033.7hPa ESE 2.2mph /  3.5km/h 4mph /  6.4km/h 96% 0.00in /  0mm 0 W/m2
00:59 48.3 °F /  9.1 °C 47.2 °F /  8.4 °C 30.53in /  1033.7hPa SE 1.7mph /  2.7km/h 4mph /  6.4km/h 96% 0.00in /  0mm 0 W/m2
01:04 48.2 °F /  9 °C 47.1 °F /  8.4 °C 30.53in /  1033.7hPa SE 1.5mph /  2.4km/h 3mph /  4.8km/h 96% 0.00in /  0mm 0 W/m2
01:09 48.2 °F /  9 °C 47.1 °F /  8.4 °C 30.54in /  1034.1hPa SE 1.8mph /  2.9km/h 4mph /  6.4km/h 96% 0.00in /  0mm 0 W/m2
01:14 48 °F /  8.9 °C 46.9 °F /  8.3 °C 30.54in /  1034.1hPa ESE 0.8mph /  1.3km/h 3mph /  4.8km/h 96% 0.00in /  0mm 0 W/m2
01:19 48.1 °F /  8.9 °C 47 °F /  8.3 °C 30.53in /  1033.7hPa SE 2.4mph /  3.9km/h 4mph /  6.4km/h 96% 0.00in /  0mm 0 W/m2
01:24 48.2 °F /  9 °C 47.1 °F /  8.4 °C 30.53in /  1033.7hPa SE 1.2mph /  1.9km/h 3mph /  4.8km/h 96% 0.00in /  0mm 0 W/m2
01:29 48.2 °F /  9 °C 47.1 °F /  8.4 °C 30.53in /  1033.7hPa SE 1.1mph /  1.8km/h 4mph /  6.4km/h 96% 0.00in /  0mm 0 W/m2
01:34 48.2 °F /  9 °C 47.1 °F /  8.4 °C 30.53in /  1033.7hPa SE 1.7mph /  2.7km/h 3mph /  4.8km/h 96% 0.00in /  0mm 0 W/m2
01:39 48.4 °F /  9.1 °C 47.3 °F /  8.5 °C 30.54in /  1034.1hPa SE 1.6mph /  2.6km/h 3mph /  4.8km/h 96% 0.00in /  0mm 0 W/m2
01:44 48.4 °F /  9.1 °C 47.3 °F /  8.5 °C 30.54in /  1034.1hPa SE 1.2mph /  1.9km/h 3mph /  4.8km/h 96% 0.00in /  0mm 0 W/m2
01:49 48.4 °F /  9.1 °C 47.3 °F /  8.5 °C 30.54in /  1034.1hPa SE 2mph /  3.2km/h 4mph /  6.4km/h 96% 0.00in /  0mm 0 W/m2
01:54 48.4 °F /  9.1 °C 47.3 °F /  8.5 °C 30.54in /  1034.1hPa SE 1.1mph /  1.8km/h 3mph /  4.8km/h 96% 0.00in /  0mm 0 W/m2
01:59 48.4 °F /  9.1 °C 47.3 °F /  8.5 °C 30.54in /  1034.1hPa SE 2.1mph /  3.4km/h 4mph /  6.4km/h 96% 0.00in /  0mm 0 W/m2
02:04 48.4 °F /  9.1 °C 47.3 °F /  8.5 °C 30.54in /  1034.1hPa SE 1.3mph /  2.1km/h 4mph /  6.4km/h 96% 0.00in /  0mm 0 W/m2
02:09 48.4 °F /  9.1 °C 47.3 °F /  8.5 °C 30.54in /  1034.1hPa SE 1.9mph /  3.1km/h 5mph /  8km/h 96% 0.00in /  0mm 0 W/m2
02:14 48.4 °F /  9.1 °C 47.3 °F /  8.5 °C 30.54in /  1034.1hPa SE 2.3mph /  3.7km/h 3mph /  4.8km/h 96% 0.00in /  0mm 0 W/m2
02:19 48.4 °F /  9.1 °C 47.3 °F /  8.5 °C 30.54in /  1034.1hPa ESE 2.4mph /  3.9km/h 5mph /  8km/h 96% 0.00in /  0mm 0 W/m2
02:24 48.4 °F /  9.1 °C 47.3 °F /  8.5 °C 30.54in /  1034.1hPa ESE 3.2mph /  5.1km/h 5mph /  8km/h 96% 0.00in /  0mm 0 W/m2
02:29 48.4 °F /  9.1 °C 47.3 °F /  8.5 °C 30.54in /  1034.1hPa ESE 2.5mph /  4km/h 5mph /  8km/h 96% 0.00in /  0mm 0 W/m2
02:34 48.3 °F /  9.1 °C 47.2 °F /  8.4 °C 30.54in /  1034.1hPa SSE 2.4mph /  3.9km/h 6mph /  9.7km/h 96% 0.00in /  0mm 0 W/m2
02:39 48.3 °F /  9.1 °C 47.2 °F /  8.4 °C 30.54in /  1034.1hPa ESE 2.6mph /  4.2km/h 6mph /  9.7km/h 96% 0.00in /  0mm 0 W/m2
02:44 48.4 °F /  9.1 °C 47.3 °F /  8.5 °C 30.54in /  1034.1hPa ESE 2mph /  3.2km/h 4mph /  6.4km/h 96% 0.00in /  0mm 0 W/m2
02:49 48.3 °F /  9.1 °C 47.2 °F /  8.4 °C 30.54in /  1034.1hPa ESE 2.1mph /  3.4km/h 4mph /  6.4km/h 96% 0.00in /  0mm 0 W/m2
02:54 48.2 °F /  9 °C 47.1 °F /  8.4 °C 30.54in /  1034.1hPa ESE 2.4mph /  3.9km/h 4mph /  6.4km/h 96% 0.00in /  0mm 0 W/m2
02:59 48.2 °F /  9 °C 47.1 °F /  8.4 °C 30.55in /  1034.4hPa ESE 2.2mph /  3.5km/h 5mph /  8km/h 96% 0.00in /  0mm 0 W/m2
03:04 48.1 °F /  8.9 °C 47 °F /  8.3 °C 30.54in /  1034.1hPa ESE 2.5mph /  4km/h 4mph /  6.4km/h 96% 0.00in /  0mm 0 W/m2
03:09 48.1 °F /  8.9 °C 47 °F /  8.3 °C 30.54in /  1034.1hPa SE 1.6mph /  2.6km/h 3mph /  4.8km/h 96% 0.00in /  0mm 0 W/m2
03:14 48.1 °F /  8.9 °C 47 °F /  8.3 °C 30.54in /  1034.1hPa ESE 2.5mph /  4km/h 4mph /  6.4km/h 96% 0.00in /  0mm 0 W/m2
03:19 48.2 °F /  9 °C 47.1 °F /  8.4 °C 30.55in /  1034.4hPa ESE 3.1mph /  5km/h 5mph /  8km/h 96% 0.00in /  0mm 0 W/m2
03:24 48.2 °F /  9 °C 47.1 °F /  8.4 °C 30.55in /  1034.4hPa ESE 2.1mph /  3.4km/h 5mph /  8km/h 96% 0.00in /  0mm 0 W/m2
03:29 48.2 °F /  9 °C 47.1 °F /  8.4 °C 30.55in /  1034.4hPa ESE 1.1mph /  1.8km/h 2mph /  3.2km/h 96% 0.00in /  0mm 0 W/m2
03:34 48.3 °F /  9.1 °C 47.2 °F /  8.4 °C 30.55in /  1034.4hPa ESE 0.2mph /  0.3km/h 1mph /  1.6km/h 96% 0.00in /  0mm 0 W/m2
03:39 48.2 °F /  9 °C 47.1 °F /  8.4 °C 30.55in /  1034.4hPa ESE 0.8mph /  1.3km/h 2mph /  3.2km/h 96% 0.00in /  0mm 0 W/m2
03:44 48.2 °F /  9 °C 47.1 °F /  8.4 °C 30.55in /  1034.4hPa Calm   2mph /  3.2km/h 96% 0.00in /  0mm 0 W/m2
03:49 48.3 °F /  9.1 °C 47.2 °F /  8.4 °C 30.54in /  1034.1hPa ESE 0.5mph /  0.8km/h 1mph /  1.6km/h 96% 0.00in /  0mm 0 W/m2
03:54 48.4 °F /  9.1 °C 47.3 °F /  8.5 °C 30.54in /  1034.1hPa ESE 0.8mph /  1.3km/h 2mph /  3.2km/h 96% 0.00in /  0mm 0 W/m2
03:59 48.4 °F /  9.1 °C 47.3 °F /  8.5 °C 30.54in /  1034.1hPa Calm   2mph /  3.2km/h 96% 0.00in /  0mm 0 W/m2
04:04 48.4 °F /  9.1 °C 47.3 °F /  8.5 °C 30.54in /  1034.1hPa ESE 1.3mph /  2.1km/h 3mph /  4.8km/h 96% 0.00in /  0mm 0 W/m2
04:09 48.4 °F /  9.1 °C 47.3 °F /  8.5 °C 30.54in /  1034.1hPa ESE 0.5mph /  0.8km/h 2mph /  3.2km/h 96% 0.00in /  0mm 0 W/m2
04:13 48.4 °F /  9.1 °C 47.3 °F /  8.5 °C 30.54in /  1034.1hPa ESE 0.9mph /  1.4km/h 2mph /  3.2km/h 96% 0.00in /  0mm 0 W/m2
04:19 48.4 °F /  9.1 °C 47.3 °F /  8.5 °C 30.54in /  1034.1hPa ESE 1.8mph /  2.9km/h 3mph /  4.8km/h 96% 0.00in /  0mm 0 W/m2
04:24 48.4 °F /  9.1 °C 47.3 °F /  8.5 °C 30.54in /  1034.1hPa ESE 0.9mph /  1.4km/h 3mph /  4.8km/h 96% 0.00in /  0mm 0 W/m2
04:29 48.4 °F /  9.1 °C 47.3 °F /  8.5 °C 30.54in /  1034.1hPa ESE 1mph /  1.6km/h 3mph /  4.8km/h 96% 0.00in /  0mm 0 W/m2
04:34 48.4 °F /  9.1 °C 47.3 °F /  8.5 °C 30.54in /  1034.1hPa ESE 1.3mph /  2.1km/h 3mph /  4.8km/h 96% 0.00in /  0mm 0 W/m2
04:39 48.4 °F /  9.1 °C 47.3 °F /  8.5 °C 30.54in /  1034.1hPa ESE 1.8mph /  2.9km/h 3mph /  4.8km/h 96% 0.00in /  0mm 0 W/m2
04:44 48.4 °F /  9.1 °C 47.3 °F /  8.5 °C 30.54in /  1034.1hPa ESE 1mph /  1.6km/h 3mph /  4.8km/h 96% 0.00in /  0mm 0 W/m2
04:49 48.4 °F /  9.1 °C 47.3 °F /  8.5 °C 30.54in /  1034.1hPa ESE 0.7mph /  1.1km/h 2mph /  3.2km/h 96% 0.00in /  0mm 0 W/m2
04:54 48.4 °F /  9.1 °C 47.3 °F /  8.5 °C 30.54in /  1034.1hPa ESE 0.6mph /  1km/h 2mph /  3.2km/h 96% 0.00in /  0mm 0 W/m2
04:59 48.4 °F /  9.1 °C 47.3 °F /  8.5 °C 30.55in /  1034.4hPa ESE 1.5mph /  2.4km/h 3mph /  4.8km/h 96% 0.00in /  0mm 0 W/m2
05:04 48.4 °F /  9.1 °C 47.3 °F /  8.5 °C 30.54in /  1034.1hPa ESE 1.6mph /  2.6km/h 4mph /  6.4km/h 96% 0.00in /  0mm 0 W/m2
05:09 48.4 °F /  9.1 °C 47.3 °F /  8.5 °C 30.54in /  1034.1hPa ESE 2.1mph /  3.4km/h 4mph /  6.4km/h 96% 0.00in /  0mm 0 W/m2
05:14 48.3 °F /  9.1 °C 47.2 °F /  8.4 °C 30.54in /  1034.1hPa SE 1.1mph /  1.8km/h 3mph /  4.8km/h 96% 0.00in /  0mm 0 W/m2
05:19 48.2 °F /  9 °C 47.1 °F /  8.4 °C 30.54in /  1034.1hPa SE 0.9mph /  1.4km/h 2mph /  3.2km/h 96% 0.00in /  0mm 0 W/m2
05:24 48.2 °F /  9 °C 47.1 °F /  8.4 °C 30.54in /  1034.1hPa SE 2mph /  3.2km/h 3mph /  4.8km/h 96% 0.00in /  0mm 0 W/m2
05:29 48.1 °F /  8.9 °C 47 °F /  8.3 °C 30.54in /  1034.1hPa ESE 2.2mph /  3.5km/h 3mph /  4.8km/h 96% 0.00in /  0mm 0 W/m2
05:34 48 °F /  8.9 °C 46.9 °F /  8.3 °C 30.54in /  1034.1hPa ESE 0.9mph /  1.4km/h 3mph /  4.8km/h 96% 0.00in /  0mm 0 W/m2
05:39 48 °F /  8.9 °C 46.9 °F /  8.3 °C 30.55in /  1034.4hPa ESE 0.9mph /  1.4km/h 3mph /  4.8km/h 96% 0.00in /  0mm 0 W/m2
05:44 48 °F /  8.9 °C 46.9 °F /  8.3 °C 30.55in /  1034.4hPa ESE 0.6mph /  1km/h 2mph /  3.2km/h 96% 0.00in /  0mm 0 W/m2
05:49 48 °F /  8.9 °C 46.9 °F /  8.3 °C 30.54in /  1034.1hPa ESE 2.1mph /  3.4km/h 4mph /  6.4km/h 96% 0.00in /  0mm 0 W/m2
05:54 48 °F /  8.9 °C 46.9 °F /  8.3 °C 30.55in /  1034.4hPa East 2mph /  3.2km/h 3mph /  4.8km/h 96% 0.00in /  0mm 0 W/m2
05:59 47.9 °F /  8.8 °C 46.9 °F /  8.3 °C 30.54in /  1034.1hPa ESE 1.4mph /  2.3km/h 3mph /  4.8km/h 96% 0.00in /  0mm 0 W/m2
06:04 47.8 °F /  8.8 °C 46.8 °F /  8.2 °C 30.55in /  1034.4hPa ESE 1.3mph /  2.1km/h 3mph /  4.8km/h 96% 0.00in /  0mm 0 W/m2
06:08 47.8 °F /  8.8 °C 46.7 °F /  8.2 °C 30.55in /  1034.4hPa ESE 2.5mph /  4km/h 4mph /  6.4km/h 96% 0.00in /  0mm 0 W/m2
06:14 47.7 °F /  8.7 °C 46.6 °F /  8.1 °C 30.55in /  1034.4hPa SE 2.1mph /  3.4km/h 4mph /  6.4km/h 96% 0.00in /  0mm 0 W/m2
06:19 47.7 °F /  8.7 °C 46.6 °F /  8.1 °C 30.55in /  1034.4hPa ESE 0.9mph /  1.4km/h 2mph /  3.2km/h 96% 0.00in /  0mm 0 W/m2
06:24 47.6 °F /  8.7 °C 46.5 °F /  8.1 °C 30.55in /  1034.4hPa ESE 0.2mph /  0.3km/h 2mph /  3.2km/h 96% 0.00in /  0mm 0 W/m2
06:29 47.5 °F /  8.6 °C 46.4 °F /  8 °C 30.55in /  1034.4hPa SSE 1.5mph /  2.4km/h 3mph /  4.8km/h 96% 0.00in /  0mm 0 W/m2
06:34 47.5 °F /  8.6 °C 46.4 °F /  8 °C 30.55in /  1034.4hPa SSE 1.2mph /  1.9km/h 2mph /  3.2km/h 96% 0.00in /  0mm 0 W/m2
06:39 47.5 °F /  8.6 °C 46.4 °F /  8 °C 30.55in /  1034.4hPa SSE 1.5mph /  2.4km/h 4mph /  6.4km/h 96% 0.00in /  0mm 0 W/m2
06:44 47.5 °F /  8.6 °C 46.4 °F /  8 °C 30.55in /  1034.4hPa SE 0.7mph /  1.1km/h 4mph /  6.4km/h 96% 0.00in /  0mm 0 W/m2
06:49 47.5 °F /  8.6 °C 46.4 °F /  8 °C 30.55in /  1034.4hPa ESE 0.7mph /  1.1km/h 3mph /  4.8km/h 96% 0.00in /  0mm 0 W/m2
06:54 47.5 °F /  8.6 °C 46.4 °F /  8 °C 30.55in /  1034.4hPa South 2mph /  3.2km/h 4mph /  6.4km/h 96% 0.00in /  0mm 0 W/m2
06:59 47.7 °F /  8.7 °C 46.6 °F /  8.1 °C 30.55in /  1034.4hPa SSE 0.9mph /  1.4km/h 3mph /  4.8km/h 96% 0.00in /  0mm 0 W/m2
07:04 47.7 °F /  8.7 °C 46.6 °F /  8.1 °C 30.55in /  1034.4hPa SE 0.8mph /  1.3km/h 3mph /  4.8km/h 96% 0.00in /  0mm 0 W/m2
07:09 47.7 °F /  8.7 °C 46.6 °F /  8.1 °C 30.55in /  1034.4hPa SE 1.1mph /  1.8km/h 3mph /  4.8km/h 96% 0.00in /  0mm 0 W/m2
07:14 47.7 °F /  8.7 °C 46.6 °F /  8.1 °C 30.55in /  1034.4hPa SE 0.2mph /  0.3km/h 2mph /  3.2km/h 96% 0.00in /  0mm 0 W/m2
07:19 47.5 °F /  8.6 °C 46.4 °F /  8 °C 30.55in /  1034.4hPa SE 0.2mph /  0.3km/h 3mph /  4.8km/h 96% 0.00in /  0mm 0 W/m2
07:23 47.5 °F /  8.6 °C 46.4 °F /  8 °C 30.55in /  1034.4hPa SE 1.2mph /  1.9km/h 3mph /  4.8km/h 96% 0.00in /  0mm 0 W/m2
07:29 47.5 °F /  8.6 °C 46.4 °F /  8 °C 30.55in /  1034.4hPa SE 1.5mph /  2.4km/h 3mph /  4.8km/h 96% 0.00in /  0mm 0 W/m2
07:34 47.4 °F /  8.6 °C 46.3 °F /  7.9 °C 30.55in /  1034.4hPa ENE 2.3mph /  3.7km/h 4mph /  6.4km/h 96% 0.00in /  0mm 0 W/m2
07:39 47.2 °F /  8.4 °C 46.1 °F /  7.8 °C 30.55in /  1034.4hPa East 1.3mph /  2.1km/h 3mph /  4.8km/h 96% 0.00in /  0mm 0 W/m2
07:44 47.1 °F /  8.4 °C 46 °F /  7.8 °C 30.55in /  1034.4hPa ESE 1.7mph /  2.7km/h 3mph /  4.8km/h 96% 0.00in /  0mm 0 W/m2
07:49 47.1 °F /  8.4 °C 46 °F /  7.8 °C 30.55in /  1034.4hPa ESE 1.3mph /  2.1km/h 4mph /  6.4km/h 96% 0.00in /  0mm 0 W/m2
07:54 47.2 °F /  8.4 °C 46.1 °F /  7.8 °C 30.55in /  1034.4hPa ESE 1.7mph /  2.7km/h 3mph /  4.8km/h 96% 0.00in /  0mm 0 W/m2
07:59 47.1 °F /  8.4 °C 46 °F /  7.8 °C 30.55in /  1034.4hPa SE 2mph /  3.2km/h 4mph /  6.4km/h 96% 0.00in /  0mm 0 W/m2
08:04 47.1 °F /  8.4 °C 46 °F /  7.8 °C 30.55in /  1034.4hPa SSE 1.5mph /  2.4km/h 4mph /  6.4km/h 96% 0.00in /  0mm 0 W/m2
08:09 47.1 °F /  8.4 °C 46 °F /  7.8 °C 30.55in /  1034.4hPa SE 1.2mph /  1.9km/h 4mph /  6.4km/h 96% 0.00in /  0mm 0 W/m2
08:14 46.9 °F /  8.3 °C 45.9 °F /  7.7 °C 30.55in /  1034.4hPa SE 1.2mph /  1.9km/h 4mph /  6.4km/h 96% 0.00in /  0mm 0 W/m2
08:19 46.9 °F /  8.3 °C 45.9 °F /  7.7 °C 30.55in /  1034.4hPa SE 3.2mph /  5.1km/h 6mph /  9.7km/h 96% 0.00in /  0mm 0 W/m2
08:24 46.9 °F /  8.3 °C 45.7 °F /  7.6 °C 30.56in /  1034.8hPa SE 0.8mph /  1.3km/h 3mph /  4.8km/h 95.4% 0.00in /  0mm 5 W/m2
08:29 46.9 °F /  8.3 °C 45.5 °F /  7.5 °C 30.56in /  1034.8hPa East 1.8mph /  2.9km/h 3mph /  4.8km/h 95% 0.00in /  0mm 7 W/m2
08:34 46.9 °F /  8.3 °C 45.5 °F /  7.5 °C 30.56in /  1034.8hPa ESE 2.8mph /  4.5km/h 6mph /  9.7km/h 95% 0.00in /  0mm 11 W/m2
08:39 47 °F /  8.3 °C 45.6 °F /  7.6 °C 30.56in /  1034.8hPa SSE 1.8mph /  2.9km/h 7mph /  11.3km/h 95% 0.00in /  0mm 16 W/m2
08:44 47.4 °F /  8.6 °C 46.2 °F /  7.9 °C 30.56in /  1034.8hPa South 2mph /  3.2km/h 7mph /  11.3km/h 95.8% 0.00in /  0mm 19 W/m2
08:49 47.6 °F /  8.7 °C 46.2 °F /  7.9 °C 30.56in /  1034.8hPa South 2.4mph /  3.9km/h 6mph /  9.7km/h 95.2% 0.00in /  0mm 25 W/m2
08:54 47.8 °F /  8.8 °C 46.6 °F /  8.1 °C 30.56in /  1034.8hPa South 1mph /  1.6km/h 4mph /  6.4km/h 95.5% 0.00in /  0mm 25 W/m2
08:59 47.8 °F /  8.8 °C 46.6 °F /  8.1 °C 30.56in /  1034.8hPa SW 0.2mph /  0.3km/h 2mph /  3.2km/h 95.6% 0.00in /  0mm 26 W/m2
09:04 47.8 °F /  8.8 °C 46.4 °F /  8 °C 30.56in /  1034.8hPa WSW 1.2mph /  1.9km/h 3mph /  4.8km/h 95% 0.00in /  0mm 33 W/m2
09:09 47.8 °F /  8.8 °C 46.3 °F /  7.9 °C 30.56in /  1034.8hPa SW 0.9mph /  1.4km/h 3mph /  4.8km/h 95% 0.00in /  0mm 39 W/m2
09:14 47.8 °F /  8.8 °C 46.4 °F /  8 °C 30.56in /  1034.8hPa SE 2.1mph /  3.4km/h 5mph /  8km/h 95% 0.00in /  0mm 42 W/m2
09:19 47.9 °F /  8.8 °C 46.5 °F /  8.1 °C 30.56in /  1034.8hPa SE 1.5mph /  2.4km/h 4mph /  6.4km/h 95% 0.00in /  0mm 44 W/m2
09:24 48 °F /  8.9 °C 46.6 °F /  8.1 °C 30.57in /  1035.1hPa SE 0.4mph /  0.6km/h 3mph /  4.8km/h 95% 0.00in /  0mm 49 W/m2
09:28 48 °F /  8.9 °C 46.6 °F /  8.1 °C 30.57in /  1035.1hPa NE 1.5mph /  2.4km/h 3mph /  4.8km/h 95% 0.00in /  0mm 49 W/m2
09:34 48 °F /  8.9 °C 46.6 °F /  8.1 °C 30.57in /  1035.1hPa NNE 0.9mph /  1.4km/h 3mph /  4.8km/h 95% 0.00in /  0mm 54 W/m2
09:39 48 °F /  8.9 °C 46.6 °F /  8.1 °C 30.57in /  1035.1hPa SSE 2.4mph /  3.9km/h 6mph /  9.7km/h 95% 0.00in /  0mm 58 W/m2
09:44 48.4 °F /  9.1 °C 46.9 °F /  8.3 °C 30.57in /  1035.1hPa South 2.1mph /  3.4km/h 5mph /  8km/h 95% 0.00in /  0mm 63 W/m2
09:49 48.6 °F /  9.2 °C 47.1 °F /  8.4 °C 30.58in /  1035.4hPa SSE 2.1mph /  3.4km/h 7mph /  11.3km/h 95% 0.00in /  0mm 70 W/m2
09:54 48.6 °F /  9.2 °C 47.1 °F /  8.4 °C 30.57in /  1035.1hPa SSW 2.3mph /  3.7km/h 7mph /  11.3km/h 95% 0.01in /  0.25mm 70 W/m2
09:59 48.8 °F /  9.3 °C 47.4 °F /  8.6 °C 30.57in /  1035.1hPa SSE 3.2mph /  5.1km/h 6mph /  9.7km/h 95% 0.01in /  0.25mm 58 W/m2
10:04 49 °F /  9.4 °C 47.6 °F /  8.7 °C 30.58in /  1035.4hPa SSE 2.9mph /  4.7km/h 6mph /  9.7km/h 95% 0.01in /  0.25mm 49 W/m2
10:09 49.1 °F /  9.5 °C 47.7 °F /  8.7 °C 30.58in /  1035.4hPa South 0.8mph /  1.3km/h 3mph /  4.8km/h 95% 0.01in /  0.25mm 56 W/m2
10:14 49.3 °F /  9.6 °C 47.8 °F /  8.8 °C 30.58in /  1035.4hPa SE 4.8mph /  7.7km/h 8mph /  12.9km/h 95% 0.01in /  0.25mm 58 W/m2
10:19 49.3 °F /  9.6 °C 47.8 °F /  8.8 °C 30.58in /  1035.4hPa South 4.6mph /  7.4km/h 8mph /  12.9km/h 95% 0.01in /  0.25mm 53 W/m2
10:24 49.5 °F /  9.7 °C 47.9 °F /  8.8 °C 30.58in /  1035.4hPa South 2.9mph /  4.7km/h 8mph /  12.9km/h 94.4% 0.01in /  0.25mm 53 W/m2
10:29 49.5 °F /  9.7 °C 47.8 °F /  8.8 °C 30.58in /  1035.4hPa SSW 2mph /  3.2km/h 4mph /  6.4km/h 94.2% 0.01in /  0.25mm 47 W/m2
10:34 49.5 °F /  9.7 °C 47.8 °F /  8.8 °C 30.58in /  1035.4hPa SSW 2.4mph /  3.9km/h 6mph /  9.7km/h 94% 0.01in /  0.25mm 49 W/m2
10:39 49.6 °F /  9.8 °C 48 °F /  8.9 °C 30.59in /  1035.8hPa SSW 3.9mph /  6.3km/h 5mph /  8km/h 94% 0.01in /  0.25mm 58 W/m2
10:44 49.6 °F /  9.8 °C 48 °F /  8.9 °C 30.59in /  1035.8hPa South 5.2mph /  8.4km/h 8mph /  12.9km/h 94% 0.01in /  0.25mm 58 W/m2
10:49 49.8 °F /  9.9 °C 48 °F /  8.9 °C 30.59in /  1035.8hPa SSE 3.5mph /  5.6km/h 8mph /  12.9km/h 93.6% 0.01in /  0.25mm 77 W/m2
10:54 49.8 °F /  9.9 °C 47.8 °F /  8.8 °C 30.59in /  1035.8hPa South 2.9mph /  4.7km/h 7mph /  11.3km/h 93% 0.00in /  0mm 74 W/m2
10:59 49.8 °F /  9.9 °C 47.8 °F /  8.8 °C 30.59in /  1035.8hPa SSE 1.7mph /  2.7km/h 6mph /  9.7km/h 93% 0.00in /  0mm 54 W/m2
11:04 50 °F /  10 °C 48 °F /  8.9 °C 30.59in /  1035.8hPa South 0.9mph /  1.4km/h 5mph /  8km/h 93% 0.00in /  0mm 77 W/m2
11:09 50 °F /  10 °C 48 °F /  8.9 °C 30.59in /  1035.8hPa SSW 1.8mph /  2.9km/h 4mph /  6.4km/h 93% 0.00in /  0mm 76 W/m2
11:14 50.2 °F /  10.1 °C 48.1 °F /  8.9 °C 30.58in /  1035.4hPa SW 2.2mph /  3.5km/h 7mph /  11.3km/h 92.8% 0.00in /  0mm 63 W/m2
11:19 50.2 °F /  10.1 °C 48 °F /  8.9 °C 30.58in /  1035.4hPa SSW 1.9mph /  3.1km/h 4mph /  6.4km/h 92% 0.00in /  0mm 63 W/m2
11:24 50.3 °F /  10.2 °C 48.1 °F /  8.9 °C 30.58in /  1035.4hPa SSW 1.2mph /  1.9km/h 4mph /  6.4km/h 92% 0.00in /  0mm 79 W/m2
11:29 50.4 °F /  10.2 °C 48.2 °F /  9 °C 30.58in /  1035.4hPa South 1.8mph /  2.9km/h 5mph /  8km/h 92% 0.00in /  0mm 100 W/m2
11:34 50.4 °F /  10.2 °C 48.2 °F /  9 °C 30.58in /  1035.4hPa South 2.8mph /  4.5km/h 6mph /  9.7km/h 92% 0.00in /  0mm 84 W/m2
11:39 50.5 °F /  10.3 °C 48.4 °F /  9.1 °C 30.58in /  1035.4hPa SSE 3.3mph /  5.3km/h 5mph /  8km/h 92% 0.00in /  0mm 98 W/m2
11:44 50.7 °F /  10.4 °C 48.6 °F /  9.2 °C 30.58in /  1035.4hPa ESE 3mph /  4.8km/h 7mph /  11.3km/h 92% 0.00in /  0mm 90 W/m2
11:49 50.5 °F /  10.3 °C 48.4 °F /  9.1 °C 30.58in /  1035.4hPa South 3.4mph /  5.5km/h 7mph /  11.3km/h 92% 0.00in /  0mm 74 W/m2
11:54 50.7 °F /  10.4 °C 48.4 °F /  9.1 °C 30.57in /  1035.1hPa South 2.8mph /  4.5km/h 6mph /  9.7km/h 91.4% 0.00in /  0mm 77 W/m2
11:58 50.8 °F /  10.4 °C 48.3 °F /  9.1 °C 30.57in /  1035.1hPa South 5.5mph /  8.9km/h 10mph /  16.1km/h 91% 0.00in /  0mm 70 W/m2
12:04 50.8 °F /  10.4 °C 48.3 °F /  9.1 °C 30.57in /  1035.1hPa South 4mph /  6.4km/h 7mph /  11.3km/h 91% 0.00in /  0mm 70 W/m2
12:09 50.9 °F /  10.5 °C 48 °F /  8.9 °C 30.57in /  1035.1hPa SSW 3.6mph /  5.8km/h 8mph /  12.9km/h 90% 0.00in /  0mm 81 W/m2
12:14 51.1 °F /  10.6 °C 48.2 °F /  9 °C 30.57in /  1035.1hPa South 1.7mph /  2.7km/h 5mph /  8km/h 90% 0.00in /  0mm 77 W/m2
12:19 51.1 °F /  10.6 °C 48.2 °F /  9 °C 30.57in /  1035.1hPa South 3.7mph /  6km/h 5mph /  8km/h 90% 0.00in /  0mm 76 W/m2
12:24 51.1 °F /  10.6 °C 48 °F /  8.9 °C 30.57in /  1035.1hPa South 2.1mph /  3.4km/h 5mph /  8km/h 89.2% 0.00in /  0mm 74 W/m2
12:29 51.2 °F /  10.7 °C 48.1 °F /  8.9 °C 30.57in /  1035.1hPa SSE 1.3mph /  2.1km/h 5mph /  8km/h 89% 0.00in /  0mm 79 W/m2
12:34 51.3 °F /  10.7 °C 48.2 °F /  9 °C 30.56in /  1034.8hPa South 2.2mph /  3.5km/h 5mph /  8km/h 89% 0.00in /  0mm 77 W/m2
12:39 51.3 °F /  10.7 °C 48.2 °F /  9 °C 30.56in /  1034.8hPa South 2.7mph /  4.3km/h 5mph /  8km/h 89% 0.00in /  0mm 63 W/m2
12:44 51.3 °F /  10.7 °C 48.2 °F /  9 °C 30.56in /  1034.8hPa SSE 1.7mph /  2.7km/h 3mph /  4.8km/h 89% 0.00in /  0mm 51 W/m2
12:49 51.3 °F /  10.7 °C 48.2 °F /  9 °C 30.56in /  1034.8hPa SSE 1.6mph /  2.6km/h 3mph /  4.8km/h 89% 0.00in /  0mm 44 W/m2
12:54 51.3 °F /  10.7 °C 48.2 °F /  9 °C 30.56in /  1034.8hPa SSE 2.6mph /  4.2km/h 5mph /  8km/h 89% 0.00in /  0mm 47 W/m2
12:59 51.3 °F /  10.7 °C 48.3 °F /  9.1 °C 30.55in /  1034.4hPa SSE 3.1mph /  5km/h 5mph /  8km/h 89% 0.00in /  0mm 54 W/m2
13:04 51.3 °F /  10.7 °C 48.2 °F /  9 °C 30.55in /  1034.4hPa SE 4.1mph /  6.6km/h 6mph /  9.7km/h 89% 0.00in /  0mm 63 W/m2
13:09 51.3 °F /  10.7 °C 48.2 °F /  9 °C 30.55in /  1034.4hPa SSE 2.7mph /  4.3km/h 6mph /  9.7km/h 89% 0.00in /  0mm 58 W/m2
13:14 51.3 °F /  10.7 °C 48.2 °F /  9 °C 30.56in /  1034.8hPa South 4mph /  6.4km/h 8mph /  12.9km/h 89% 0.00in /  0mm 58 W/m2
13:19 51.3 °F /  10.7 °C 48.2 °F /  9 °C 30.56in /  1034.8hPa South 3.5mph /  5.6km/h 8mph /  12.9km/h 89% 0.00in /  0mm 56 W/m2
13:24 51.2 °F /  10.7 °C 48.1 °F /  8.9 °C 30.55in /  1034.4hPa SSW 4.4mph /  7.1km/h 9mph /  14.5km/h 89% 0.00in /  0mm 42 W/m2
13:29 51.3 °F /  10.7 °C 48.2 °F /  9 °C 30.55in /  1034.4hPa South 2mph /  3.2km/h 7mph /  11.3km/h 89% 0.00in /  0mm 40 W/m2
13:34 51.3 °F /  10.7 °C 48.2 °F /  9 °C 30.56in /  1034.8hPa South 3.5mph /  5.6km/h 7mph /  11.3km/h 89% 0.00in /  0mm 39 W/m2
13:39 51.3 °F /  10.7 °C 48.2 °F /  9 °C 30.56in /  1034.8hPa South 4.1mph /  6.6km/h 8mph /  12.9km/h 89% 0.00in /  0mm 44 W/m2
13:43 51.3 °F /  10.7 °C 48.1 °F /  8.9 °C 30.56in /  1034.8hPa South 5.7mph /  9.2km/h 9mph /  14.5km/h 88.8% 0.00in /  0mm 37 W/m2
13:49 51.3 °F /  10.7 °C 47.8 °F /  8.8 °C 30.56in /  1034.8hPa South 3.4mph /  5.5km/h 9mph /  14.5km/h 88% 0.00in /  0mm 33 W/m2
13:54 51.4 °F /  10.8 °C 47.9 °F /  8.8 °C 30.56in /  1034.8hPa South 2mph /  3.2km/h 6mph /  9.7km/h 88% 0.00in /  0mm 35 W/m2
13:59 51.4 °F /  10.8 °C 48 °F /  8.9 °C 30.56in /  1034.8hPa South 1.3mph /  2.1km/h 4mph /  6.4km/h 88% 0.00in /  0mm 33 W/m2
14:04 51.4 °F /  10.8 °C 47.9 °F /  8.8 °C 30.56in /  1034.8hPa SSW 2.8mph /  4.5km/h 5mph /  8km/h 87.8% 0.00in /  0mm 28 W/m2
14:09 51.3 °F /  10.7 °C 47.6 °F /  8.7 °C 30.55in /  1034.4hPa SSW 3.2mph /  5.1km/h 6mph /  9.7km/h 87.2% 0.00in /  0mm 28 W/m2
14:14 51.3 °F /  10.7 °C 47.8 °F /  8.8 °C 30.56in /  1034.8hPa South 4.1mph /  6.6km/h 8mph /  12.9km/h 88% 0.00in /  0mm 28 W/m2
14:19 51.3 °F /  10.7 °C 47.8 °F /  8.8 °C 30.56in /  1034.8hPa South 5.5mph /  8.9km/h 7mph /  11.3km/h 88% 0.00in /  0mm 28 W/m2
14:24 51.3 °F /  10.7 °C 47.8 °F /  8.8 °C 30.56in /  1034.8hPa SSE 4.1mph /  6.6km/h 9mph /  14.5km/h 88% 0.00in /  0mm 25 W/m2
14:29 51.3 °F /  10.7 °C 47.6 °F /  8.7 °C 30.57in /  1035.1hPa South 4.9mph /  7.9km/h 7mph /  11.3km/h 87.2% 0.00in /  0mm 23 W/m2
14:34 51.3 °F /  10.7 °C 47.5 °F /  8.6 °C 30.57in /  1035.1hPa SSW 2.3mph /  3.7km/h 6mph /  9.7km/h 87% 0.00in /  0mm 19 W/m2
14:39 51.3 °F /  10.7 °C 47.7 °F /  8.7 °C 30.57in /  1035.1hPa South 2.7mph /  4.3km/h 5mph /  8km/h 87.6% 0.00in /  0mm 18 W/m2
14:44 51.3 °F /  10.7 °C 47.8 °F /  8.8 °C 30.57in /  1035.1hPa SSE 2.8mph /  4.5km/h 7mph /  11.3km/h 88% 0.00in /  0mm 14 W/m2
14:49 51.2 °F /  10.7 °C 47.7 °F /  8.7 °C 30.56in /  1034.8hPa SSE 4.1mph /  6.6km/h 8mph /  12.9km/h 88% 0.00in /  0mm 14 W/m2
14:54 51.1 °F /  10.6 °C 47.7 °F /  8.7 °C 30.56in /  1034.8hPa South 2.9mph /  4.7km/h 6mph /  9.7km/h 88% 0.00in /  0mm 16 W/m2
14:59 51 °F /  10.6 °C 47.6 °F /  8.7 °C 30.56in /  1034.8hPa South 4.7mph /  7.6km/h 8mph /  12.9km/h 88% 0.00in /  0mm 18 W/m2
15:03 50.9 °F /  10.5 °C 47.7 °F /  8.7 °C 30.56in /  1034.8hPa South 3.7mph /  6km/h 6mph /  9.7km/h 88.5% 0.00in /  0mm 14 W/m2
15:09 50.9 °F /  10.5 °C 47.8 °F /  8.8 °C 30.56in /  1034.8hPa SSE 3.4mph /  5.5km/h 5mph /  8km/h 89% 0.00in /  0mm 14 W/m2
15:14 50.8 °F /  10.4 °C 47.8 °F /  8.8 °C 30.56in /  1034.8hPa SSE 3mph /  4.8km/h 5mph /  8km/h 89% 0.00in /  0mm 14 W/m2
15:19 50.7 °F /  10.4 °C 47.7 °F /  8.7 °C 30.56in /  1034.8hPa SSE 2.6mph /  4.2km/h 5mph /  8km/h 89% 0.00in /  0mm 12 W/m2
15:24 50.7 °F /  10.4 °C 47.7 °F /  8.7 °C 30.57in /  1035.1hPa South 1.9mph /  3.1km/h 4mph /  6.4km/h 89% 0.00in /  0mm 11 W/m2
15:29 50.7 °F /  10.4 °C 47.7 °F /  8.7 °C 30.57in /  1035.1hPa South 3.2mph /  5.1km/h 6mph /  9.7km/h 89% 0.00in /  0mm 11 W/m2
15:34 50.6 °F /  10.3 °C 47.6 °F /  8.7 °C 30.56in /  1034.8hPa South 4mph /  6.4km/h 7mph /  11.3km/h 89% 0.00in /  0mm 7 W/m2
15:39 50.7 °F /  10.4 °C 47.7 °F /  8.7 °C 30.57in /  1035.1hPa SSE 1.4mph /  2.3km/h 5mph /  8km/h 89% 0.00in /  0mm 5 W/m2
15:44 50.7 °F /  10.4 °C 47.7 °F /  8.7 °C 30.57in /  1035.1hPa SSE 1.6mph /  2.6km/h 5mph /  8km/h 89% 0.00in /  0mm 5 W/m2
15:49 50.6 °F /  10.3 °C 47.6 °F /  8.7 °C 30.57in /  1035.1hPa SSE 3.3mph /  5.3km/h 6mph /  9.7km/h 89% 0.00in /  0mm 0 W/m2
15:54 50.5 °F /  10.3 °C 47.5 °F /  8.6 °C 30.57in /  1035.1hPa South 4.2mph /  6.8km/h 9mph /  14.5km/h 89% 0.00in /  0mm 0 W/m2
15:59 50.5 °F /  10.3 °C 47.5 °F /  8.6 °C 30.57in /  1035.1hPa SSE 2.5mph /  4km/h 6mph /  9.7km/h 89% 0.00in /  0mm 0 W/m2
16:04 50.4 °F /  10.2 °C 47.3 °F /  8.5 °C 30.57in /  1035.1hPa SSE 4.6mph /  7.4km/h 10mph /  16.1km/h 89% 0.00in /  0mm 0 W/m2
16:09 50.3 °F /  10.2 °C 47.2 °F /  8.4 °C 30.56in /  1034.8hPa SSE 3.9mph /  6.3km/h 8mph /  12.9km/h 89% 0.00in /  0mm 0 W/m2
16:14 50.2 °F /  10.1 °C 47.1 °F /  8.4 °C 30.56in /  1034.8hPa SE 6.3mph /  10.1km/h 11mph /  17.7km/h 89% 0.00in /  0mm 0 W/m2
16:19 50.2 °F /  10.1 °C 47.1 °F /  8.4 °C 30.56in /  1034.8hPa SSE 3.2mph /  5.1km/h 11mph /  17.7km/h 89% 0.00in /  0mm 0 W/m2
16:24 50.1 °F /  10.1 °C 47 °F /  8.3 °C 30.56in /  1034.8hPa SSE 4.9mph /  7.9km/h 9mph /  14.5km/h 89% 0.00in /  0mm 0 W/m2
16:29 49.9 °F /  9.9 °C 46.9 °F /  8.3 °C 30.56in /  1034.8hPa South 3.6mph /  5.8km/h 8mph /  12.9km/h 89% 0.00in /  0mm 0 W/m2
16:34 49.8 °F /  9.9 °C 46.9 °F /  8.3 °C 30.56in /  1034.8hPa SSE 2.8mph /  4.5km/h 6mph /  9.7km/h 90% 0.00in /  0mm 0 W/m2
16:39 49.8 °F /  9.9 °C 46.9 °F /  8.3 °C 30.56in /  1034.8hPa SSE 2.6mph /  4.2km/h 7mph /  11.3km/h 90% 0.00in /  0mm 0 W/m2
16:44 49.6 °F /  9.8 °C 46.8 °F /  8.2 °C 30.57in /  1035.1hPa SSE 2.5mph /  4km/h 6mph /  9.7km/h 90% 0.00in /  0mm 0 W/m2
16:49 49.6 °F /  9.8 °C 46.8 °F /  8.2 °C 30.57in /  1035.1hPa SSE 4.1mph /  6.6km/h 12mph /  19.3km/h 90% 0.00in /  0mm 0 W/m2
16:54 49.6 °F /  9.8 °C 46.8 °F /  8.2 °C 30.57in /  1035.1hPa South 4.5mph /  7.2km/h 7mph /  11.3km/h 90% 0.00in /  0mm 0 W/m2
16:59 49.5 °F /  9.7 °C 46.7 °F /  8.2 °C 30.57in /  1035.1hPa South 5.7mph /  9.2km/h 9mph /  14.5km/h 90% 0.00in /  0mm 0 W/m2
17:04 49.5 °F /  9.7 °C 46.6 °F /  8.1 °C 30.57in /  1035.1hPa SSE 2.9mph /  4.7km/h 6mph /  9.7km/h 90% 0.00in /  0mm 0 W/m2
17:09 49.5 °F /  9.7 °C 46.7 °F /  8.2 °C 30.57in /  1035.1hPa South 4mph /  6.4km/h 6mph /  9.7km/h 90% 0.00in /  0mm 0 W/m2
17:14 49.5 °F /  9.7 °C 46.7 °F /  8.2 °C 30.57in /  1035.1hPa South 4.2mph /  6.8km/h 10mph /  16.1km/h 90.2% 0.00in /  0mm 0 W/m2
17:19 49.5 °F /  9.7 °C 46.8 °F /  8.2 °C 30.57in /  1035.1hPa SE 3.2mph /  5.1km/h 7mph /  11.3km/h 90.8% 0.00in /  0mm 0 W/m2
17:24 49.5 °F /  9.7 °C 46.9 °F /  8.3 °C 30.56in /  1034.8hPa SSE 3.2mph /  5.1km/h 7mph /  11.3km/h 91% 0.00in /  0mm 0 W/m2
17:29 49.5 °F /  9.7 °C 46.9 °F /  8.3 °C 30.56in /  1034.8hPa SE 2.3mph /  3.7km/h 8mph /  12.9km/h 91% 0.00in /  0mm 0 W/m2
17:34 49.5 °F /  9.7 °C 46.9 °F /  8.3 °C 30.56in /  1034.8hPa SSE 3.7mph /  6km/h 6mph /  9.7km/h 91% 0.00in /  0mm 0 W/m2
17:39 49.5 °F /  9.7 °C 46.9 °F /  8.3 °C 30.55in /  1034.4hPa SSE 5.2mph /  8.4km/h 8mph /  12.9km/h 91% 0.00in /  0mm 0 W/m2
17:44 49.3 °F /  9.6 °C 46.8 °F /  8.2 °C 30.55in /  1034.4hPa SSE 5.2mph /  8.4km/h 10mph /  16.1km/h 91% 0.00in /  0mm 0 W/m2
17:49 49.3 °F /  9.6 °C 46.8 °F /  8.2 °C 30.55in /  1034.4hPa SSE 6.6mph /  10.6km/h 12mph /  19.3km/h 91% 0.00in /  0mm 0 W/m2
17:54 49.1 °F /  9.5 °C 46.6 °F /  8.1 °C 30.55in /  1034.4hPa South 6.2mph /  10km/h 11mph /  17.7km/h 91% 0.00in /  0mm 0 W/m2
17:59 49.1 °F /  9.5 °C 46.6 °F /  8.1 °C 30.55in /  1034.4hPa SSE 6.1mph /  9.8km/h 12mph /  19.3km/h 91% 0.00in /  0mm 0 W/m2
18:04 48.9 °F /  9.4 °C 46.4 °F /  8 °C 30.55in /  1034.4hPa South 6.2mph /  10km/h 12mph /  19.3km/h 91% 0.00in /  0mm 0 W/m2
18:09 48.9 °F /  9.4 °C 46.4 °F /  8 °C 30.54in /  1034.1hPa SSE 6.4mph /  10.3km/h 13mph /  20.9km/h 91% 0.00in /  0mm 0 W/m2
18:14 48.9 °F /  9.4 °C 46.4 °F /  8 °C 30.55in /  1034.4hPa SSE 5.3mph /  8.5km/h 10mph /  16.1km/h 91% 0.00in /  0mm 0 W/m2
18:19 48.7 °F /  9.3 °C 46.2 °F /  7.9 °C 30.55in /  1034.4hPa SSE 5.4mph /  8.7km/h 12mph /  19.3km/h 91% 0.00in /  0mm 0 W/m2
18:24 48.7 °F /  9.3 °C 46.2 °F /  7.9 °C 30.55in /  1034.4hPa South 4.3mph /  6.9km/h 12mph /  19.3km/h 91% 0.00in /  0mm 0 W/m2
18:29 48.7 °F /  9.3 °C 46.2 °F /  7.9 °C 30.55in /  1034.4hPa South 3.5mph /  5.6km/h 9mph /  14.5km/h 91% 0.00in /  0mm 0 W/m2
18:34 48.7 °F /  9.3 °C 46.2 °F /  7.9 °C 30.54in /  1034.1hPa SSE 5.2mph /  8.4km/h 10mph /  16.1km/h 91% 0.00in /  0mm 0 W/m2
18:39 48.7 °F /  9.3 °C 46.2 °F /  7.9 °C 30.55in /  1034.4hPa SSE 4.5mph /  7.2km/h 10mph /  16.1km/h 91% 0.00in /  0mm 0 W/m2
18:44 48.7 °F /  9.3 °C 46.2 °F /  7.9 °C 30.55in /  1034.4hPa South 5.2mph /  8.4km/h 9mph /  14.5km/h 91% 0.00in /  0mm 0 W/m2
18:49 48.7 °F /  9.3 °C 46.2 °F /  7.9 °C 30.55in /  1034.4hPa SSE 3.7mph /  6km/h 8mph /  12.9km/h 91% 0.00in /  0mm 0 W/m2
18:54 48.7 °F /  9.3 °C 46.1 °F /  7.8 °C 30.56in /  1034.8hPa South 4.5mph /  7.2km/h 11mph /  17.7km/h 91% 0.00in /  0mm 0 W/m2
18:59 48.6 °F /  9.2 °C 46 °F /  7.8 °C 30.56in /  1034.8hPa South 5.6mph /  9km/h 10mph /  16.1km/h 91% 0.00in /  0mm 0 W/m2
19:04 48.6 °F /  9.2 °C 46 °F /  7.8 °C 30.56in /  1034.8hPa SSE 3.7mph /  6km/h 10mph /  16.1km/h 91% 0.00in /  0mm 0 W/m2
19:09 48.6 °F /  9.2 °C 46 °F /  7.8 °C 30.56in /  1034.8hPa South 6mph /  9.7km/h 17mph /  27.4km/h 91% 0.00in /  0mm 0 W/m2
19:14 48.6 °F /  9.2 °C 46 °F /  7.8 °C 30.56in /  1034.8hPa SSE 4mph /  6.4km/h 8mph /  12.9km/h 91% 0.00in /  0mm 0 W/m2
19:19 48.5 °F /  9.2 °C 45.9 °F /  7.7 °C 30.56in /  1034.8hPa SSE 4.4mph /  7.1km/h 7mph /  11.3km/h 91% 0.00in /  0mm 0 W/m2
19:24 48.4 °F /  9.1 °C 45.9 °F /  7.7 °C 30.55in /  1034.4hPa South 3.5mph /  5.6km/h 7mph /  11.3km/h 91% 0.00in /  0mm 0 W/m2
19:29 48.4 °F /  9.1 °C 45.9 °F /  7.7 °C 30.55in /  1034.4hPa SSE 3.2mph /  5.1km/h 7mph /  11.3km/h 91% 0.00in /  0mm 0 W/m2
19:34 48.3 °F /  9.1 °C 45.8 °F /  7.7 °C 30.55in /  1034.4hPa SSE 8.6mph /  13.8km/h 12mph /  19.3km/h 91% 0.00in /  0mm 0 W/m2
19:39 48.3 °F /  9.1 °C 45.8 °F /  7.7 °C 30.55in /  1034.4hPa South 4.6mph /  7.4km/h 13mph /  20.9km/h 91% 0.00in /  0mm 0 W/m2
19:44 48.2 °F /  9 °C 45.7 °F /  7.6 °C 30.55in /  1034.4hPa South 3.6mph /  5.8km/h 9mph /  14.5km/h 91% 0.00in /  0mm 0 W/m2
19:49 48.2 °F /  9 °C 45.7 °F /  7.6 °C 30.55in /  1034.4hPa SSE 5.6mph /  9km/h 10mph /  16.1km/h 91% 0.00in /  0mm 0 W/m2
19:54 48.1 °F /  8.9 °C 45.6 °F /  7.6 °C 30.55in /  1034.4hPa South 6.6mph /  10.6km/h 13mph /  20.9km/h 91% 0.00in /  0mm 0 W/m2
19:59 48 °F /  8.9 °C 45.5 °F /  7.5 °C 30.55in /  1034.4hPa SSE 2.7mph /  4.3km/h 7mph /  11.3km/h 91% 0.00in /  0mm 0 W/m2
20:04 48 °F /  8.9 °C 45.5 °F /  7.5 °C 30.55in /  1034.4hPa SSE 5.2mph /  8.4km/h 10mph /  16.1km/h 91% 0.00in /  0mm 0 W/m2
20:09 48 °F /  8.9 °C 45.5 °F /  7.5 °C 30.55in /  1034.4hPa South 3.6mph /  5.8km/h 9mph /  14.5km/h 91% 0.00in /  0mm 0 W/m2
20:14 48 °F /  8.9 °C 45.5 °F /  7.5 °C 30.55in /  1034.4hPa South 4.1mph /  6.6km/h 7mph /  11.3km/h 91% 0.00in /  0mm 0 W/m2
20:19 47.8 °F /  8.8 °C 45.3 °F /  7.4 °C 30.55in /  1034.4hPa SSE 5.2mph /  8.4km/h 8mph /  12.9km/h 91% 0.00in /  0mm 0 W/m2
20:24 47.8 °F /  8.8 °C 45.3 °F /  7.4 °C 30.55in /  1034.4hPa SSE 4.4mph /  7.1km/h 8mph /  12.9km/h 91% 0.00in /  0mm 0 W/m2
20:29 47.8 °F /  8.8 °C 45.6 °F /  7.6 °C 30.55in /  1034.4hPa SSE 8.2mph /  13.2km/h 13mph /  20.9km/h 91.8% 0.00in /  0mm 0 W/m2
20:34 47.8 °F /  8.8 °C 45.6 °F /  7.6 °C 30.55in /  1034.4hPa SSE 6mph /  9.7km/h 13mph /  20.9km/h 92% 0.00in /  0mm 0 W/m2
20:39 47.8 °F /  8.8 °C 45.7 °F /  7.6 °C 30.55in /  1034.4hPa SSE 3mph /  4.8km/h 8mph /  12.9km/h 92% 0.00in /  0mm 0 W/m2
20:44 47.8 °F /  8.8 °C 45.7 °F /  7.6 °C 30.55in /  1034.4hPa SSE 4mph /  6.4km/h 9mph /  14.5km/h 92% 0.00in /  0mm 0 W/m2
20:49 47.8 °F /  8.8 °C 45.7 °F /  7.6 °C 30.55in /  1034.4hPa SE 4.2mph /  6.8km/h 11mph /  17.7km/h 92% 0.00in /  0mm 0 W/m2
20:54 47.8 °F /  8.8 °C 45.7 °F /  7.6 °C 30.55in /  1034.4hPa SSE 3.3mph /  5.3km/h 8mph /  12.9km/h 92% 0.00in /  0mm 0 W/m2
20:59 47.8 °F /  8.8 °C 45.7 °F /  7.6 °C 30.56in /  1034.8hPa SSE 4mph /  6.4km/h 6mph /  9.7km/h 92% 0.00in /  0mm 0 W/m2
21:04 47.8 °F /  8.8 °C 45.7 °F /  7.6 °C 30.56in /  1034.8hPa SE 4.5mph /  7.2km/h 8mph /  12.9km/h 92% 0.00in /  0mm 0 W/m2
21:09 47.8 °F /  8.8 °C 45.7 °F /  7.6 °C 30.56in /  1034.8hPa South 1.8mph /  2.9km/h 6mph /  9.7km/h 92% 0.00in /  0mm 0 W/m2
21:14 47.8 °F /  8.8 °C 45.7 °F /  7.6 °C 30.56in /  1034.8hPa South 1.7mph /  2.7km/h 5mph /  8km/h 92% 0.00in /  0mm 0 W/m2
21:19 47.8 °F /  8.8 °C 45.7 °F /  7.6 °C 30.56in /  1034.8hPa South 2.4mph /  3.9km/h 6mph /  9.7km/h 92% 0.00in /  0mm 0 W/m2
21:23 47.8 °F /  8.8 °C 45.7 °F /  7.6 °C 30.56in /  1034.8hPa SSW 3.2mph /  5.1km/h 5mph /  8km/h 92% 0.00in /  0mm 0 W/m2
21:29 47.8 °F /  8.8 °C 45.6 °F /  7.6 °C 30.56in /  1034.8hPa South 5.8mph /  9.3km/h 11mph /  17.7km/h 92% 0.00in /  0mm 0 W/m2
21:34 47.8 °F /  8.8 °C 45.7 °F /  7.6 °C 30.56in /  1034.8hPa SSW 2.1mph /  3.4km/h 7mph /  11.3km/h 92% 0.00in /  0mm 0 W/m2
21:39 47.8 °F /  8.8 °C 45.7 °F /  7.6 °C 30.55in /  1034.4hPa SSE 2.5mph /  4km/h 7mph /  11.3km/h 92% 0.00in /  0mm 0 W/m2
21:44 47.8 °F /  8.8 °C 45.6 °F /  7.6 °C 30.55in /  1034.4hPa SSE 6.8mph /  10.9km/h 10mph /  16.1km/h 92% 0.00in /  0mm 0 W/m2
21:49 47.7 °F /  8.7 °C 45.5 °F /  7.5 °C 30.55in /  1034.4hPa SSE 3.3mph /  5.3km/h 10mph /  16.1km/h 92% 0.00in /  0mm 0 W/m2
21:54 47.7 °F /  8.7 °C 45.5 °F /  7.5 °C 30.55in /  1034.4hPa SSE 5.3mph /  8.5km/h 9mph /  14.5km/h 92% 0.00in /  0mm 0 W/m2
21:59 47.7 °F /  8.7 °C 45.5 °F /  7.5 °C 30.55in /  1034.4hPa SSE 6.6mph /  10.6km/h 11mph /  17.7km/h 92% 0.00in /  0mm 0 W/m2
22:04 47.7 °F /  8.7 °C 45.5 °F /  7.5 °C 30.55in /  1034.4hPa South 5.5mph /  8.9km/h 9mph /  14.5km/h 92% 0.00in /  0mm 0 W/m2
22:09 47.7 °F /  8.7 °C 45.5 °F /  7.5 °C 30.55in /  1034.4hPa South 4.2mph /  6.8km/h 7mph /  11.3km/h 92% 0.00in /  0mm 0 W/m2
22:14 47.7 °F /  8.7 °C 45.5 °F /  7.5 °C 30.55in /  1034.4hPa South 4.2mph /  6.8km/h 8mph /  12.9km/h 92% 0.00in /  0mm 0 W/m2
22:17 47.7 °F /  8.7 °C 45.5 °F /  7.5 °C 30.55in /  1034.4hPa South 3.3mph /  5.3km/h 8mph /  12.9km/h 92% 0.00in /  0mm 0 W/m2
22:24 47.7 °F /  8.7 °C 45.5 °F /  7.5 °C 30.55in /  1034.4hPa SSE 4mph /  6.4km/h 7mph /  11.3km/h 92% 0.00in /  0mm 0 W/m2
22:29 47.7 °F /  8.7 °C 45.5 °F /  7.5 °C 30.55in /  1034.4hPa South 3.2mph /  5.1km/h 7mph /  11.3km/h 92% 0.00in /  0mm 0 W/m2
22:34 47.5 °F /  8.6 °C 45.3 °F /  7.4 °C 30.55in /  1034.4hPa SSE 2.8mph /  4.5km/h 6mph /  9.7km/h 92% 0.00in /  0mm 0 W/m2
22:39 47.5 °F /  8.6 °C 45.3 °F /  7.4 °C 30.55in /  1034.4hPa SSE 5.2mph /  8.4km/h 8mph /  12.9km/h 92% 0.00in /  0mm 0 W/m2
22:44 47.3 °F /  8.5 °C 45.1 °F /  7.3 °C 30.56in /  1034.8hPa SSE 3.3mph /  5.3km/h 6mph /  9.7km/h 92% 0.00in /  0mm 0 W/m2
22:49 47.2 °F /  8.4 °C 45 °F /  7.2 °C 30.56in /  1034.8hPa SSE 2.8mph /  4.5km/h 5mph /  8km/h 92% 0.00in /  0mm 0 W/m2
22:54 47.1 °F /  8.4 °C 45.1 °F /  7.3 °C 30.56in /  1034.8hPa SSE 3.2mph /  5.1km/h 7mph /  11.3km/h 93% 0.00in /  0mm 0 W/m2
22:59 47.1 °F /  8.4 °C 45.1 °F /  7.3 °C 30.56in /  1034.8hPa South 2.3mph /  3.7km/h 5mph /  8km/h 93% 0.00in /  0mm 0 W/m2
23:04 46.9 °F /  8.3 °C 45 °F /  7.2 °C 30.56in /  1034.8hPa South 3.5mph /  5.6km/h 7mph /  11.3km/h 93% 0.00in /  0mm 0 W/m2
23:09 47.1 °F /  8.4 °C 45.1 °F /  7.3 °C 30.56in /  1034.8hPa South 2.4mph /  3.9km/h 6mph /  9.7km/h 93% 0.00in /  0mm 0 W/m2
23:14 47.1 °F /  8.4 °C 45.1 °F /  7.3 °C 30.56in /  1034.8hPa SSW 2.7mph /  4.3km/h 7mph /  11.3km/h 93% 0.00in /  0mm 0 W/m2
23:19 47.1 °F /  8.4 °C 45.1 °F /  7.3 °C 30.56in /  1034.8hPa SSE 2.5mph /  4km/h 7mph /  11.3km/h 93% 0.00in /  0mm 0 W/m2
23:24 47.1 °F /  8.4 °C 45.1 °F /  7.3 °C 30.56in /  1034.8hPa SSE 1.9mph /  3.1km/h 5mph /  8km/h 93% 0.00in /  0mm 0 W/m2
23:29 47.1 °F /  8.4 °C 45.1 °F /  7.3 °C 30.55in /  1034.4hPa South 5mph /  8km/h 8mph /  12.9km/h 93% 0.00in /  0mm 0 W/m2
23:34 46.9 °F /  8.3 °C 45 °F /  7.2 °C 30.55in /  1034.4hPa SSE 2.9mph /  4.7km/h 8mph /  12.9km/h 93% 0.00in /  0mm 0 W/m2
23:38 47 °F /  8.3 °C 45.2 °F /  7.3 °C 30.55in /  1034.4hPa SSE 4.4mph /  7.1km/h 7mph /  11.3km/h 93.5% 0.00in /  0mm 0 W/m2
23:44 46.9 °F /  8.3 °C 45.3 °F /  7.4 °C 30.55in /  1034.4hPa SSE 3.3mph /  5.3km/h 6mph /  9.7km/h 94% 0.00in /  0mm 0 W/m2
23:49 46.9 °F /  8.3 °C 45.3 °F /  7.4 °C 30.55in /  1034.4hPa SSE 3.6mph /  5.8km/h 8mph /  12.9km/h 94% 0.00in /  0mm 0 W/m2
23:54 46.8 °F /  8.2 °C 45.1 °F /  7.3 °C 30.55in /  1034.4hPa South 2.5mph /  4km/h 6mph /  9.7km/h 94% 0.00in /  0mm 0 W/m2
23:59 46.8 °F /  8.2 °C 45.1 °F /  7.3 °C 30.55in /  1034.4hPa SSW 6.8mph /  10.9km/h 11mph /  17.7km/h 94% 0.00in /  0mm 0 W/m2
Bath Spa Weather
Compliments of Weather Underground - 2 mb